Time;durP1;ratioP1;P1;durP2;ratioP2;P2;SDS_P1;SDS_P2;PMS_P1;PMS_P2;Temp;Humidity;BMP_temperature;BMP_pressure;BME280_temperature;BME280_humidity;BME280_pressure;Samples;Min_cycle;Max_cycle;Signal;HPM_P1;HPM_P2
2023/08/08 00:00:04;;;;;;;0.20;0.20;;;;;;;12.33;100.00;101330.44;5056006;28;20033;-52
2023/08/08 00:02:30;;;;;;;0.10;0.10;;;;;;;12.34;100.00;101329.63;5054600;28;20445;-50
2023/08/08 00:04:56;;;;;;;0.20;0.20;;;;;;;12.31;100.00;101326.94;5055552;28;20469;-52
2023/08/08 00:07:21;;;;;;;0.10;0.10;;;;;;;12.33;100.00;101330.44;5055121;28;20079;-51
2023/08/08 00:09:47;;;;;;;0.20;0.20;;;;;;;12.33;100.00;101330.44;5055235;28;20021;-49
2023/08/08 00:12:12;;;;;;;0.10;0.10;;;;;;;12.37;100.00;101321.97;5055485;28;20057;-50
2023/08/08 00:14:37;;;;;;;0.20;0.20;;;;;;;12.38;100.00;101318.53;5054845;28;20057;-51
2023/08/08 00:17:03;;;;;;;0.10;0.10;;;;;;;12.43;100.00;101332.47;5055578;28;20017;-52
2023/08/08 00:19:28;;;;;;;0.10;0.10;;;;;;;12.44;100.00;101336.81;5054999;28;20029;-51
2023/08/08 00:21:54;;;;;;;0.10;0.10;;;;;;;12.48;100.00;101330.91;5054853;28;20025;-52
2023/08/08 00:24:19;;;;;;;0.10;0.10;;;;;;;12.51;100.00;101331.00;5055115;28;20439;-52
2023/08/08 00:26:44;;;;;;;0.13;0.13;;;;;;;12.55;100.00;101325.91;5055091;28;20060;-52
2023/08/08 00:29:10;;;;;;;0.17;0.17;;;;;;;12.55;100.00;101336.25;5054751;28;20017;-52
2023/08/08 00:31:36;;;;;;;0.10;0.10;;;;;;;12.57;100.00;101329.44;5054777;28;20067;-52
2023/08/08 00:34:01;;;;;;;0.20;0.20;;;;;;;12.59;100.00;101322.56;5055127;28;20021;-50
2023/08/08 00:36:26;;;;;;;0.10;0.10;;;;;;;12.59;100.00;101325.16;5054312;28;20025;-50
2023/08/08 00:38:52;;;;;;;0.10;0.10;;;;;;;12.57;100.00;101319.09;5054851;28;20032;-51
2023/08/08 00:41:17;;;;;;;0.10;0.10;;;;;;;12.57;100.00;101321.69;5055280;28;20029;-52
2023/08/08 00:43:43;;;;;;;0.10;0.10;;;;;;;12.56;100.00;101315.59;5054324;28;20016;-50
2023/08/08 00:46:09;;;;;;;0.13;0.13;;;;;;;12.59;100.00;101312.25;5054375;28;20049;-51
2023/08/08 00:48:34;;;;;;;0.10;0.10;;;;;;;12.61;100.00;101315.75;5054621;28;20017;-51
2023/08/08 00:51:00;;;;;;;0.20;0.20;;;;;;;12.63;100.00;101306.34;5054276;28;20083;-50
2023/08/08 00:53:28;;;;;;;0.20;0.20;;;;;;;12.68;100.00;101315.13;5054158;28;20389;-50
2023/08/08 00:55:53;;;;;;;;;;;;;;;12.76;100.00;101311.03;5055221;28;20036;-51
2023/08/08 00:58:19;;;;;;;0.13;0.13;;;;;;;12.72;100.00;101309.19;5054303;28;19913;-51
2023/08/08 01:00:44;;;;;;;0.17;0.17;;;;;;;12.73;100.00;101315.22;5054233;28;20052;-50
2023/08/08 01:03:10;;;;;;;0.15;0.15;;;;;;;12.73;100.00;101315.22;5054470;28;20021;-51
2023/08/08 01:05:43;;;;;;;0.10;0.10;;;;;;;12.74;100.00;101316.97;5053318;28;20469;-52
2023/08/08 01:08:08;;;;;;;0.15;0.15;;;;;;;12.76;100.00;101310.16;5054728;28;20029;-50
2023/08/08 01:10:39;;;;;;;0.20;0.20;;;;;;;12.79;100.00;101320.56;5053841;28;20023;-51
2023/08/08 01:13:08;;;;;;;0.10;0.10;;;;;;;12.79;100.00;101321.44;5054287;28;20032;-52
2023/08/08 01:15:37;;;;;;;0.10;0.10;;;;;;;12.81;100.00;101316.34;5054088;28;20024;-52
2023/08/08 01:18:07;;;;;;;0.10;0.10;;;;;;;12.81;100.00;101317.19;5053819;28;20032;-50
2023/08/08 01:20:34;;;;;;;0.10;0.10;;;;;;;12.78;100.00;101309.38;5053755;28;20998;-50
2023/08/08 01:23:08;;;;;;;0.10;0.10;;;;;;;12.75;100.00;101304.09;5054213;28;20025;-50
2023/08/08 01:25:34;;;;;;;0.20;0.20;;;;;;;12.71;100.00;101304.84;5053339;28;20029;-52
2023/08/08 01:28:00;;;;;;;0.10;0.10;;;;;;;12.67;100.00;101310.75;5053870;28;20037;-48
2023/08/08 01:30:25;;;;;;;0.10;0.10;;;;;;;12.66;100.00;101301.25;5053779;28;20028;-50
2023/08/08 01:32:51;;;;;;;0.10;0.10;;;;;;;12.63;100.00;101308.94;5053472;28;20033;-47
2023/08/08 01:35:16;;;;;;;0.10;0.10;;;;;;;12.63;100.00;101306.34;5053964;28;20036;-51
2023/08/08 01:37:48;;;;;;;0.10;0.10;;;;;;;12.58;100.00;101301.03;5053683;28;20029;-52
2023/08/08 01:40:17;;;;;;;0.20;0.20;;;;;;;12.58;100.00;101297.59;5053742;28;20029;-51
2023/08/08 01:42:46;;;;;;;0.20;0.20;;;;;;;12.57;100.00;101301.84;5053441;28;20357;-51
2023/08/08 01:45:12;;;;;;;0.10;0.10;;;;;;;12.57;100.00;101301.00;5053357;28;20040;-48
2023/08/08 01:47:37;;;;;;;0.20;0.20;;;;;;;12.55;100.00;101300.06;5052861;28;20021;-51
2023/08/08 01:50:03;;;;;;;0.10;0.10;;;;;;;12.55;100.00;101300.06;5053897;28;20067;-51
2023/08/08 01:52:28;;;;;;;0.10;0.10;;;;;;;12.55;100.00;101295.78;5053471;28;20099;-51
2023/08/08 01:54:54;;;;;;;0.20;0.20;;;;;;;12.53;100.00;101294.84;5052944;28;20021;-51
2023/08/08 01:57:19;;;;;;;0.10;0.10;;;;;;;12.51;100.00;101287.06;5053614;28;20029;-52
2023/08/08 01:59:45;;;;;;;0.20;0.20;;;;;;;12.51;100.00;101288.75;5053003;28;20067;-50
2023/08/08 02:02:10;;;;;;;0.10;0.10;;;;;;;12.47;100.00;101277.47;5053256;28;20086;-52
2023/08/08 02:04:36;;;;;;;0.20;0.20;;;;;;;12.44;100.00;101276.50;5053240;28;20373;-51
2023/08/08 02:07:01;;;;;;;0.20;0.20;;;;;;;12.39;100.00;101280.66;5052757;28;20453;-51
2023/08/08 02:09:27;;;;;;;0.15;0.15;;;;;;;12.35;100.00;101274.50;5052892;28;20044;-50
2023/08/08 02:11:52;;;;;;;0.10;0.10;;;;;;;12.27;100.00;101276.00;5053341;28;20036;-50
2023/08/08 02:14:18;;;;;;;0.10;0.10;;;;;;;12.27;100.00;101283.75;5052114;28;20032;-51
2023/08/08 02:16:43;;;;;;;0.10;0.10;;;;;;;12.21;100.00;101274.09;5052546;28;20104;-51
2023/08/08 02:19:08;;;;;;;0.10;0.10;;;;;;;12.19;100.00;101276.66;5053110;28;20534;-50
2023/08/08 02:21:34;;;;;;;0.10;0.10;;;;;;;12.19;100.00;101271.47;5052211;28;20028;-52
2023/08/08 02:23:59;;;;;;;0.17;0.17;;;;;;;12.22;100.00;101262.06;5052925;28;20036;-51
2023/08/08 02:26:25;;;;;;;0.20;0.20;;;;;;;12.21;100.00;101263.75;5053112;28;20071;-51
2023/08/08 02:28:50;;;;;;;0.15;0.15;;;;;;;12.23;100.00;101261.25;5052429;28;20060;-50
2023/08/08 02:31:20;;;;;;;0.13;0.13;;;;;;;12.22;100.00;101256.91;5052811;28;20047;-49
2023/08/08 02:33:50;;;;;;;0.20;0.20;;;;;;;12.25;100.00;101260.47;5053074;28;20025;-48
2023/08/08 02:36:15;;;;;;;0.10;0.10;;;;;;;12.25;100.00;101254.41;5052676;28;20029;-50
2023/08/08 02:38:40;;;;;;;0.13;0.13;;;;;;;12.26;100.00;101261.31;5052586;28;20622;-49
2023/08/08 02:41:05;;;;;;;0.20;0.20;;;;;;;12.25;100.00;101255.28;5053082;28;20075;-51
2023/08/08 02:43:32;;;;;;;0.10;0.10;;;;;;;12.27;100.00;101251.03;5051920;28;20051;-50
2023/08/08 02:45:57;;;;;;;0.15;0.15;;;;;;;12.26;100.00;101253.56;5052303;28;20055;-51
2023/08/08 02:48:22;;;;;;;0.20;0.20;;;;;;;12.29;100.00;101249.38;5052746;28;20029;-48
2023/08/08 02:50:49;;;;;;;0.20;0.20;;;;;;;12.28;100.00;101233.84;5052211;28;20044;-49
2023/08/08 02:53:14;;;;;;;0.20;0.20;;;;;;;12.30;100.00;101237.31;5052863;28;20025;-51
2023/08/08 02:55:39;;;;;;;0.20;0.20;;;;;;;12.29;100.00;101240.72;5052488;28;20064;-52
2023/08/08 02:58:05;;;;;;;0.20;0.20;;;;;;;12.28;100.00;101234.69;5051977;28;20108;-51
2023/08/08 03:00:30;;;;;;;0.10;0.10;;;;;;;12.29;100.00;101235.56;5052529;28;20024;-48
2023/08/08 03:02:55;;;;;;;0.10;0.10;;;;;;;12.30;100.00;101239.91;5052848;28;20033;-52
2023/08/08 03:05:21;;;;;;;0.10;0.10;;;;;;;12.28;100.00;101237.28;5051933;28;20029;-51
2023/08/08 03:07:46;;;;;;;0.10;0.10;;;;;;;12.30;100.00;101239.91;5052439;28;20392;-52
2023/08/08 03:10:12;;;;;;;0.20;0.20;;;;;;;12.29;100.00;101246.78;5052185;28;20109;-51
2023/08/08 03:12:38;;;;;;;0.10;0.10;;;;;;;12.25;100.00;101241.47;5052096;28;20032;-51
2023/08/08 03:15:04;;;;;;;0.20;0.20;;;;;;;12.24;100.00;101245.78;5052492;28;20033;-51
2023/08/08 03:17:29;;;;;;;0.20;0.20;;;;;;;12.24;100.00;101256.13;5051590;28;20044;-51
2023/08/08 03:19:54;;;;;;;0.20;0.20;;;;;;;12.25;100.00;101244.06;5052409;28;20029;-51
2023/08/08 03:22:20;;;;;;;0.20;0.20;;;;;;;12.23;100.00;101233.69;5052569;28;20029;-51
2023/08/08 03:24:45;;;;;;;0.20;0.20;;;;;;;12.23;100.00;101230.25;5051471;28;20029;-51
2023/08/08 03:27:10;;;;;;;0.10;0.10;;;;;;;12.25;100.00;101231.13;5055087;28;20071;-50
2023/08/08 03:29:36;;;;;;;0.10;0.10;;;;;;;12.24;100.00;101226.81;5056106;28;20422;-51
2023/08/08 03:32:03;;;;;;;0.20;0.20;;;;;;;12.25;100.00;101238.91;5055656;28;20025;-51
2023/08/08 03:34:29;;;;;;;0.20;0.20;;;;;;;12.25;100.00;101234.63;5055949;28;20029;-50
2023/08/08 03:36:54;;;;;;;0.10;0.10;;;;;;;12.24;100.00;101240.63;5056143;28;20137;-48
2023/08/08 03:39:19;;;;;;;0.20;0.20;;;;;;;12.24;100.00;101240.63;5055624;28;20028;-51
2023/08/08 03:41:45;;;;;;;0.20;0.20;;;;;;;12.24;100.00;101242.31;5055494;28;20028;-50
2023/08/08 03:44:10;;;;;;;0.20;0.20;;;;;;;12.24;100.00;101240.63;5055942;28;20032;-51
2023/08/08 03:46:35;;;;;;;0.20;0.20;;;;;;;12.25;100.00;101234.63;5054992;28;20045;-51
2023/08/08 03:49:01;;;;;;;0.10;0.10;;;;;;;12.25;100.00;101238.91;5055700;28;20547;-52
2023/08/08 03:51:26;;;;;;;0.20;0.20;;;;;;;12.24;100.00;101237.13;5055703;28;20032;-50
2023/08/08 03:53:51;;;;;;;0.10;0.10;;;;;;;12.23;100.00;101235.41;5055332;28;20031;-51
2023/08/08 03:56:17;;;;;;;0.20;0.20;;;;;;;12.16;100.00;101235.22;5055885;28;20087;-51
2023/08/08 03:58:42;;;;;;;0.20;0.20;;;;;;;12.15;100.00;101235.19;5055446;28;20106;-51
2023/08/08 04:01:08;;;;;;;0.10;0.10;;;;;;;12.06;100.00;101228.03;5055188;28;20021;-51
2023/08/08 04:03:33;;;;;;;0.13;0.13;;;;;;;12.01;100.00;101227.88;5055341;28;20025;-52
2023/08/08 04:05:58;;;;;;;0.20;0.20;;;;;;;12.00;100.00;101228.72;5055755;28;20040;-52
2023/08/08 04:08:24;;;;;;;0.20;0.20;;;;;;;11.97;100.00;101233.78;5054624;28;20051;-51
2023/08/08 04:10:49;;;;;;;0.10;0.10;;;;;;;11.94;100.00;101227.63;5055701;28;20086;-50
2023/08/08 04:13:14;;;;;;;0.20;0.20;;;;;;;11.93;100.00;101224.19;5055426;28;20094;-52
2023/08/08 04:15:39;;;;;;;0.20;0.20;;;;;;;11.91;100.00;101220.66;5054607;28;20104;-48
2023/08/08 04:18:06;;;;;;;0.20;0.20;;;;;;;11.90;100.00;101220.63;5055650;28;20060;-46
2023/08/08 04:20:33;;;;;;;0.20;0.20;;;;;;;11.86;100.00;101214.47;5054630;28;20025;-50
2023/08/08 04:22:58;;;;;;;0.20;0.20;;;;;;;11.80;100.00;101220.34;5055038;28;20535;-48
2023/08/08 04:25:24;;;;;;;0.20;0.20;;;;;;;11.82;100.00;101217.81;5054880;28;20056;-46
2023/08/08 04:27:49;;;;;;;0.20;0.20;;;;;;;11.81;100.00;101222.09;5054575;28;20104;-47
2023/08/08 04:30:14;;;;;;;0.30;0.30;;;;;;;11.80;100.00;101230.66;5054931;28;20025;-47
2023/08/08 04:32:40;;;;;;;0.20;0.20;;;;;;;11.78;100.00;101224.56;5054826;28;20111;-48
2023/08/08 04:35:05;;;;;;;0.13;0.13;;;;;;;11.76;100.00;101221.09;5054494;28;20111;-47
2023/08/08 04:37:31;;;;;;;0.20;0.20;;;;;;;11.76;100.00;101218.50;5053768;28;20457;-49
2023/08/08 04:39:56;;;;;;;0.20;0.20;;;;;;;11.78;100.00;101227.16;5055097;28;20024;-47
2023/08/08 04:42:21;;;;;;;0.20;0.20;;;;;;;11.79;100.00;101228.91;5054248;28;20068;-49
2023/08/08 04:44:47;;;;;;;0.30;0.30;;;;;;;11.79;100.00;101228.91;5054321;28;20052;-47
2023/08/08 04:47:12;;;;;;;0.20;0.20;;;;;;;11.80;100.00;101228.09;5055108;28;20041;-48
2023/08/08 04:49:37;;;;;;;0.20;0.20;;;;;;;11.81;100.00;101232.44;5054164;28;20020;-48
2023/08/08 04:52:03;;;;;;;0.20;0.20;;;;;;;11.82;100.00;101229.00;5054594;28;20029;-48
2023/08/08 04:54:29;;;;;;;0.20;0.20;;;;;;;11.79;100.00;101231.50;5054594;28;20029;-49
2023/08/08 04:56:54;;;;;;;0.20;0.20;;;;;;;11.82;100.00;101225.56;5054127;28;20100;-47
2023/08/08 04:59:20;;;;;;;0.20;0.20;;;;;;;11.82;100.00;101222.97;5054626;28;20037;-49
2023/08/08 05:01:45;;;;;;;0.20;0.20;;;;;;;11.80;100.00;101225.50;5054239;28;20021;-50
2023/08/08 05:04:10;;;;;;;0.20;0.20;;;;;;;11.82;100.00;101218.66;5053961;28;20032;-48
2023/08/08 05:06:36;;;;;;;0.20;0.20;;;;;;;11.84;100.00;101217.03;5054266;28;20558;-47
2023/08/08 05:09:01;;;;;;;0.20;0.20;;;;;;;11.84;100.00;101226.47;5054497;28;20064;-46
2023/08/08 05:11:26;;;;;;;0.20;0.20;;;;;;;11.87;100.00;101221.41;5053363;28;20024;-52
2023/08/08 05:13:52;;;;;;;0.20;0.20;;;;;;;11.89;100.00;101221.44;5054323;28;20024;-50
2023/08/08 05:16:18;;;;;;;0.20;0.20;;;;;;;11.88;100.00;101227.44;5054285;28;20024;-52
2023/08/08 05:18:46;;;;;;;0.20;0.20;;;;;;;11.91;100.00;101227.53;5053316;28;20044;-50
2023/08/08 05:21:11;;;;;;;0.20;0.20;;;;;;;11.93;100.00;101228.44;5054374;28;20036;-47
2023/08/08 05:23:37;;;;;;;0.20;0.20;;;;;;;11.94;100.00;101217.28;5054059;28;20017;-50
2023/08/08 05:26:03;;;;;;;0.20;0.20;;;;;;;11.95;100.00;101222.53;5053407;28;20035;-48
2023/08/08 05:28:28;;;;;;;0.20;0.20;;;;;;;11.94;100.00;101218.19;5053646;28;20025;-51
2023/08/08 05:30:54;;;;;;;0.30;0.30;;;;;;;11.97;100.00;101225.19;5053737;28;20021;-47
2023/08/08 05:33:19;;;;;;;0.28;0.28;;;;;;;12.01;100.00;101224.44;5053900;28;20033;-52
2023/08/08 05:35:45;;;;;;;0.20;0.20;;;;;;;12.03;100.00;101225.34;5053690;28;20419;-50
2023/08/08 05:38:10;;;;;;;0.20;0.20;;;;;;;12.10;100.00;101234.16;5053439;28;20021;-48
2023/08/08 05:40:36;;;;;;;0.20;0.20;;;;;;;12.16;100.00;101227.47;5053296;28;20108;-47
2023/08/08 05:43:04;;;;;;;0.20;0.20;;;;;;;12.27;100.00;101232.06;5053983;28;20084;-47
2023/08/08 05:45:29;;;;;;;0.20;0.20;;;;;;;12.37;100.00;101230.63;5052752;28;20123;-49
2023/08/08 05:47:56;;;;;;;0.10;0.10;;;;;;;12.51;100.00;101235.34;5053448;28;20469;-46
2023/08/08 05:50:21;;;;;;;0.25;0.25;;;;;;;12.58;100.00;101238.13;5052658;28;20037;-48
2023/08/08 05:52:47;;;;;;;0.20;0.20;;;;;;;12.60;100.00;101234.72;5052771;28;20074;-50
2023/08/08 05:55:12;;;;;;;0.20;0.20;;;;;;;12.68;100.00;101224.59;5053332;28;20024;-50
2023/08/08 05:57:37;;;;;;;0.13;0.13;;;;;;;12.79;100.00;101222.28;5053117;28;20052;-52
2023/08/08 06:00:05;;;;;;;0.20;0.20;;;;;;;12.80;100.00;101227.50;5053129;28;20021;-49
2023/08/08 06:02:30;;;;;;;0.20;0.20;;;;;;;12.88;100.00;101237.19;5053044;28;20028;-47
2023/08/08 06:04:56;;;;;;;0.20;0.20;;;;;;;12.92;100.00;101239.00;5053401;28;20029;-47
2023/08/08 06:07:21;;;;;;;0.20;0.20;;;;;;;12.99;100.00;101230.59;5052640;28;20064;-48
2023/08/08 06:09:47;;;;;;;0.20;0.20;;;;;;;13.12;100.00;101232.63;5053041;28;20388;-47
2023/08/08 06:12:12;;;;;;;0.20;0.20;;;;;;;13.18;100.00;101227.63;5053154;28;20021;-48
2023/08/08 06:14:37;;;;;;;0.20;0.20;;;;;;;13.26;100.00;101232.09;5052387;28;20377;-51
2023/08/08 06:17:03;;;;;;;0.10;0.10;;;;;;;13.39;100.00;101231.59;5053315;28;20112;-49
2023/08/08 06:19:28;;;;;;;0.13;0.13;;;;;;;13.54;100.00;101237.97;5052875;28;20104;-50
2023/08/08 06:21:53;;;;;;;0.10;0.10;;;;;;;13.57;100.00;101246.72;5052301;28;20021;-48
2023/08/08 06:24:19;;;;;;;0.10;0.10;;;;;;;13.62;100.00;101249.38;5052988;28;20028;-51
2023/08/08 06:26:44;;;;;;;0.10;0.10;;;;;;;13.60;100.00;101257.13;5052681;28;20075;-47
2023/08/08 06:29:10;;;;;;;0.10;0.10;;;;;;;13.60;100.00;101251.09;5052189;28;20019;-50
2023/08/08 06:31:36;;;;;;;0.10;0.10;;;;;;;13.64;100.00;101255.50;5052792;28;20067;-48
2023/08/08 06:34:01;;;;;;;0.10;0.10;;;;;;;13.68;100.00;101252.13;5052966;28;20485;-51
2023/08/08 06:36:26;;;;;;;0.15;0.15;;;;;;;13.70;100.00;101247.88;5051955;28;20073;-51
2023/08/08 06:38:52;;;;;;;0.10;0.10;;;;;;;13.74;100.00;101248.81;5052869;28;20029;-47
2023/08/08 06:41:17;;;;;;;0.15;0.15;;;;;;;13.81;100.00;101254.19;5052124;28;20028;-48
2023/08/08 06:43:43;;;;;;;0.10;0.10;;;;;;;13.77;100.00;101252.34;5052618;28;20101;-48
2023/08/08 06:46:08;;;;;;;0.10;0.10;;;;;;;13.82;100.00;101253.31;5052476;28;20102;-51
2023/08/08 06:48:33;;;;;;;0.13;0.13;;;;;;;13.88;100.00;101252.59;5051820;28;20060;-47
2023/08/08 06:50:59;;;;;;;0.20;0.20;;;;;;;13.94;100.00;101252.75;5052418;28;20029;-47
2023/08/08 06:53:24;;;;;;;0.20;0.20;;;;;;;13.99;100.00;101250.22;5052561;28;20029;-48
2023/08/08 06:55:49;;;;;;;0.20;0.20;;;;;;;14.09;100.00;101251.31;5052131;28;20029;-47
2023/08/08 06:58:15;;;;;;;0.10;0.10;;;;;;;14.16;100.00;101251.47;5052552;28;20029;-51
2023/08/08 07:00:40;;;;;;;0.10;0.10;;;;;;;14.25;100.00;101255.97;5052983;28;20021;-52
2023/08/08 07:03:06;;;;;;;0.10;0.10;;;;;;;14.33;100.00;101245.75;5056351;28;20481;-50
2023/08/08 07:05:31;;;;;;;0.10;0.10;;;;;;;14.47;100.00;101254.72;5056105;28;20033;-49
2023/08/08 07:07:57;;;;;;;0.10;0.10;;;;;;;14.56;100.00;101258.31;5056641;28;20064;-50
2023/08/08 07:10:22;;;;;;;0.10;0.10;;;;;;;14.65;100.00;101258.53;5055828;28;20070;-51
2023/08/08 07:12:48;;;;;;;0.10;0.10;;;;;;;14.68;100.00;101257.72;5056749;28;20040;-52
2023/08/08 07:15:14;;;;;;;0.15;0.15;;;;;;;14.85;100.00;101255.44;5056813;28;20025;-47
2023/08/08 07:17:39;;;;;;;0.15;0.15;;;;;;;14.92;100.00;101247.78;5055481;28;20029;-49
2023/08/08 07:20:05;;;;;;;0.10;0.10;;;;;;;15.02;100.00;101243.66;5056149;28;20103;-48
2023/08/08 07:22:32;;;;;;;0.10;0.10;;;;;;;15.13;100.00;101257.69;5056238;28;20052;-48
2023/08/08 07:24:57;;;;;;;0.10;0.10;;;;;;;15.29;100.00;101244.97;5055456;28;20529;-48
2023/08/08 07:27:22;;;;;;;0.10;0.10;;;;;;;15.31;100.00;101243.25;5056279;28;20156;-50
2023/08/08 07:29:48;;;;;;;0.10;0.10;;;;;;;15.38;100.00;101247.72;5056450;28;20416;-51
2023/08/08 07:32:13;;;;;;;0.13;0.13;;;;;;;15.42;100.00;101253.84;5055678;28;20104;-49
2023/08/08 07:34:38;;;;;;;0.15;0.15;;;;;;;15.45;100.00;101249.56;5055914;28;20484;-48
2023/08/08 07:37:04;;;;;;;0.13;0.13;;;;;;;15.54;100.00;101243.63;5056215;28;20155;-52
2023/08/08 07:39:29;;;;;;;0.10;0.10;;;;;;;15.69;100.00;101248.19;5054963;28;20017;-52
2023/08/08 07:41:55;;;;;;;0.10;0.10;;;;;;;15.77;100.00;101249.16;5056336;28;20025;-51
2023/08/08 07:44:20;;;;;;;0.10;0.10;;;;;;;15.88;100.00;101251.06;5056153;28;20116;-47
2023/08/08 07:46:46;;;;;;;0.13;0.13;;;;;;;16.03;100.00;101248.69;5054892;28;20075;-50
2023/08/08 07:49:11;;;;;;;0.10;0.10;;;;;;;16.04;100.00;101250.44;5056265;28;20029;-52
2023/08/08 07:51:36;;;;;;;0.10;0.10;;;;;;;16.20;100.00;101242.84;5055281;28;20083;-47
2023/08/08 07:54:02;;;;;;;0.00;0.00;;;;;;;16.35;100.00;101245.63;5055722;28;20080;-51
2023/08/08 07:56:27;;;;;;;0.10;0.10;;;;;;;16.45;100.00;101249.22;5055699;28;20029;-49
2023/08/08 07:58:53;;;;;;;0.10;0.10;;;;;;;16.66;100.00;101242.53;5055368;28;20071;-47
2023/08/08 08:01:18;;;;;;;0.00;0.00;;;;;;;16.65;98.23;101252.03;5055665;28;20456;-51
2023/08/08 08:03:44;;;;;;;0.10;0.10;;;;;;;16.66;97.68;101251.19;5055293;28;20029;-50
2023/08/08 08:06:10;;;;;;;0.10;0.10;;;;;;;16.79;98.54;101253.06;5055059;28;20041;-52
2023/08/08 08:08:35;;;;;;;0.10;0.10;;;;;;;16.89;95.48;101253.19;5054947;28;20021;-49
2023/08/08 08:11:02;;;;;;;0.10;0.10;;;;;;;16.82;93.84;101257.44;5055520;28;20074;-51
2023/08/08 08:13:27;;;;;;;0.10;0.10;;;;;;;16.78;94.48;101245.25;5053835;28;20025;-48
2023/08/08 08:15:52;;;;;;;0.10;0.10;;;;;;;16.76;97.03;101250.44;5055162;28;20367;-51
2023/08/08 08:18:19;;;;;;;0.10;0.10;;;;;;;16.71;96.27;101241.72;5055543;28;20032;-47
2023/08/08 08:20:45;;;;;;;0.10;0.10;;;;;;;16.59;95.91;101250.25;5054392;28;20377;-51
2023/08/08 08:23:10;;;;;;;0.10;0.10;;;;;;;16.45;93.41;101247.50;5055163;28;20488;-52
2023/08/08 08:25:35;;;;;;;0.05;0.05;;;;;;;16.49;95.21;101255.31;5055094;28;20458;-52
2023/08/08 08:28:01;;;;;;;0.10;0.10;;;;;;;16.51;93.30;101253.63;5054312;28;20484;-51
2023/08/08 08:30:27;;;;;;;0.10;0.10;;;;;;;16.51;94.68;101253.63;5055063;28;20021;-52
2023/08/08 08:32:52;;;;;;;0.10;0.10;;;;;;;16.63;93.95;101252.03;5055245;28;20050;-50
2023/08/08 08:35:19;;;;;;;0.10;0.10;;;;;;;16.76;95.62;101250.44;5054349;28;20382;-49
2023/08/08 08:37:44;;;;;;;0.10;0.10;;;;;;;16.93;94.85;101247.16;5054679;28;20025;-47
2023/08/08 08:40:10;;;;;;;0.10;0.10;;;;;;;17.10;94.27;101249.94;5055235;28;20035;-47
2023/08/08 08:42:37;;;;;;;0.10;0.10;;;;;;;17.01;91.77;101247.25;5053872;28;20424;-47
2023/08/08 08:45:04;;;;;;;0.10;0.10;;;;;;;17.16;91.05;101251.69;5054809;28;20052;-49
2023/08/08 08:47:31;;;;;;;0.10;0.10;;;;;;;17.23;90.91;101250.91;5054647;28;20025;-48
2023/08/08 08:50:01;;;;;;;0.10;0.10;;;;;;;17.26;91.33;101243.09;5054010;28;20465;-48
2023/08/08 08:52:26;;;;;;;0.10;0.10;;;;;;;17.44;92.02;101252.81;5054355;28;20040;-51
2023/08/08 08:54:52;;;;;;;0.00;0.00;;;;;;;17.63;91.96;101252.97;5054079;28;20024;-50
2023/08/08 08:57:19;;;;;;;0.10;0.10;;;;;;;17.58;90.23;101251.19;5054452;28;20033;-50
2023/08/08 08:59:44;;;;;;;0.10;0.10;;;;;;;17.43;90.28;101254.56;5054372;28;20064;-49
2023/08/08 09:02:10;;;;;;;0.10;0.10;;;;;;;17.47;90.20;101257.16;5054212;28;20068;-48
2023/08/08 09:04:37;;;;;;;0.00;0.00;;;;;;;17.34;90.76;101257.09;5053853;28;20389;-48
2023/08/08 09:07:06;;;;;;;0.00;0.00;;;;;;;17.05;88.06;101260.28;5054461;28;20021;-49
2023/08/08 09:09:32;;;;;;;0.10;0.10;;;;;;;16.99;91.83;101260.25;5053771;28;20033;-47
2023/08/08 09:11:57;;;;;;;0.10;0.10;;;;;;;16.82;93.29;101251.34;5054136;28;20461;-50
2023/08/08 09:14:25;;;;;;;0.10;0.10;;;;;;;16.60;92.54;101256.31;5054175;28;20108;-43
2023/08/08 09:16:56;;;;;;;0.10;0.10;;;;;;;16.47;94.68;101263.13;5053670;28;20021;-48
2023/08/08 09:19:22;;;;;;;0.10;0.10;;;;;;;16.33;94.43;101262.94;5054379;28;20028;-48
2023/08/08 09:21:48;;;;;;;0.10;0.10;;;;;;;16.55;96.29;101264.09;5054110;28;20052;-46
2023/08/08 09:24:14;;;;;;;0.10;0.10;;;;;;;16.66;92.90;101266.81;5053286;28;20087;-49
2023/08/08 09:26:40;;;;;;;0.10;0.10;;;;;;;16.90;90.33;101270.53;5053913;28;20071;-48
2023/08/08 09:29:06;;;;;;;0.10;0.10;;;;;;;17.22;92.44;101277.81;5054269;28;20017;-48
2023/08/08 09:31:34;;;;;;;0.10;0.10;;;;;;;17.36;91.31;101265.78;5052874;28;20147;-44
2023/08/08 09:34:01;;;;;;;0.08;0.08;;;;;;;17.44;89.17;101271.94;5053895;28;20025;-48
2023/08/08 09:36:27;;;;;;;0.10;0.10;;;;;;;17.37;87.26;101267.53;5053562;28;20488;-48
2023/08/08 09:38:53;;;;;;;0.10;0.10;;;;;;;17.32;88.52;101274.44;5053214;28;20056;-49
2023/08/08 09:41:20;;;;;;;0.00;0.00;;;;;;;17.28;89.76;101278.72;5053801;28;20530;-49
2023/08/08 09:43:47;;;;;;;;;;;;;;;17.54;87.41;101279.81;5053898;28;20021;-46
2023/08/08 09:46:13;;;;;;;0.10;0.10;;;;;;;17.35;87.67;101273.59;5052700;28;19916;-46
2023/08/08 09:48:40;;;;;;;0.10;0.10;;;;;;;17.41;88.82;101279.72;5053465;28;20435;-46
2023/08/08 09:51:06;;;;;;;0.10;0.10;;;;;;;17.54;86.40;101269.41;5053118;28;20457;-49
2023/08/08 09:53:32;;;;;;;0.00;0.00;;;;;;;17.80;85.22;101282.59;5052986;28;20488;-49
2023/08/08 09:55:58;;;;;;;0.00;0.00;;;;;;;17.99;87.46;101282.78;5053574;28;20029;-47
2023/08/08 09:58:23;;;;;;;0.10;0.10;;;;;;;18.07;83.02;101274.09;5052629;28;20017;-50
2023/08/08 10:00:52;;;;;;;0.00;0.00;;;;;;;18.21;80.52;101275.94;5053177;28;20104;-50
2023/08/08 10:03:18;;;;;;;0.00;0.00;;;;;;;18.79;78.90;101264.81;5053233;28;20025;-46
2023/08/08 10:05:44;;;;;;;0.10;0.10;;;;;;;18.97;77.25;101266.63;5052665;28;20040;-50
2023/08/08 10:08:10;;;;;;;0.00;0.00;;;;;;;18.81;76.57;101267.44;5053371;28;20029;-50
2023/08/08 10:10:37;;;;;;;0.00;0.00;;;;;;;19.08;77.55;101264.00;5053176;28;20115;-50
2023/08/08 10:13:04;;;;;;;0.00;0.00;;;;;;;19.01;75.67;101260.53;5052502;28;20034;-48
2023/08/08 10:15:30;;;;;;;0.10;0.10;;;;;;;18.76;76.23;101268.28;5052920;28;20028;-50
2023/08/08 10:17:57;;;;;;;0.00;0.00;;;;;;;18.26;75.42;101263.78;5053168;28;20021;-50
2023/08/08 10:20:24;;;;;;;0.05;0.05;;;;;;;18.09;77.85;101267.16;5052386;28;20021;-48
2023/08/08 10:22:51;;;;;;;;;;;;;;;18.37;79.06;101264.69;5053556;28;20021;-49
2023/08/08 10:25:19;;;;;;;0.10;0.10;;;;;;;18.59;75.46;101264.75;5053112;28;19919;-50
2023/08/08 10:27:44;;;;;;;0.10;0.10;;;;;;;18.97;72.59;101277.06;5051977;28;20036;-46
2023/08/08 10:30:10;;;;;;;0.10;0.10;;;;;;;18.99;73.68;101270.13;5053095;28;20029;-48
2023/08/08 10:32:43;;;;;;;0.00;0.00;;;;;;;18.67;72.87;101281.31;5052517;28;20469;-49
2023/08/08 10:35:11;;;;;;;0.00;0.00;;;;;;;18.33;74.75;101278.56;5052039;28;20021;-49
2023/08/08 10:37:37;;;;;;;;;;;;;;;18.53;75.71;101283.03;5053004;28;20034;-46
2023/08/08 10:40:07;;;;;;;0.00;0.00;;;;;;;17.77;74.16;101278.25;5053018;28;19920;-50
2023/08/08 10:42:41;;;;;;;0.00;0.00;;;;;;;17.63;75.63;101282.50;5051765;28;20040;-44
2023/08/08 10:45:10;;;;;;;0.00;0.00;;;;;;;18.21;78.33;101279.41;5052393;28;20488;-49
2023/08/08 10:47:36;;;;;;;0.10;0.10;;;;;;;18.59;76.07;101265.63;5051958;28;20028;-45
2023/08/08 10:50:11;;;;;;;0.10;0.10;;;;;;;19.16;71.22;101271.84;5052440;28;20485;-45
2023/08/08 10:52:48;;;;;;;0.00;0.00;;;;;;;19.40;71.48;101261.41;5052403;28;20036;-50
2023/08/08 10:55:25;;;;;;;0.00;0.00;;;;;;;19.42;69.27;101262.28;5051858;28;20029;-49
2023/08/08 10:58:08;;;;;;;0.00;0.00;;;;;;;19.59;70.56;101258.78;5052912;28;20033;-50
2023/08/08 11:00:36;;;;;;;0.00;0.00;;;;;;;20.10;71.02;101256.06;5052580;28;20047;-46
2023/08/08 11:03:04;;;;;;;0.00;0.00;;;;;;;20.23;65.65;101263.03;5051922;28;20032;-48
2023/08/08 11:05:31;;;;;;;0.05;0.05;;;;;;;20.29;64.34;101264.72;5052240;28;20036;-48
2023/08/08 11:07:58;;;;;;;0.00;0.00;;;;;;;20.54;64.10;101277.72;5052524;28;20078;-48
2023/08/08 11:10:23;;;;;;;0.00;0.00;;;;;;;20.88;60.12;101274.94;5051655;28;20044;-46
2023/08/08 11:12:57;;;;;;;0.00;0.00;;;;;;;20.97;61.90;101271.41;5052478;28;20174;-46